createdAt,value
2018-06-11T00:00:08.846Z,82.80
2018-06-11T00:01:13.122Z,83.00
2018-06-11T00:02:17.415Z,82.80
2018-06-11T00:04:25.464Z,82.90
2018-06-11T00:05:29.744Z,82.80
2018-06-11T00:06:33.985Z,82.40
2018-06-11T00:07:38.223Z,82.30
2018-06-11T00:08:43.307Z,82.30
2018-06-11T00:09:47.437Z,82.20
2018-06-11T00:10:51.623Z,82.10
2018-06-11T00:11:56.003Z,82.00
2018-06-11T00:13:00.155Z,82.00
2018-06-11T00:14:04.341Z,82.10
2018-06-11T00:15:08.811Z,81.90
2018-06-11T00:16:13.530Z,81.80
2018-06-11T00:17:17.733Z,82.00
2018-06-11T00:18:21.915Z,81.90
2018-06-11T00:19:25.999Z,82.10
2018-06-11T00:20:30.285Z,82.10
2018-06-11T00:21:34.519Z,82.10
2018-06-11T00:22:38.650Z,81.90
2018-06-11T00:24:46.539Z,81.70
2018-06-11T00:25:50.863Z,81.70
2018-06-11T00:26:55.641Z,81.60
2018-06-11T00:28:00.639Z,81.40
2018-06-11T00:29:04.889Z,81.80
2018-06-11T00:30:08.985Z,81.30
2018-06-11T00:31:13.936Z,81.20
2018-06-11T00:32:37.259Z,81.00
2018-06-11T00:33:41.532Z,80.90
2018-06-11T00:34:46.371Z,81.00
2018-06-11T00:35:50.642Z,80.90
2018-06-11T00:36:54.718Z,81.00
2018-06-11T00:39:03.910Z,80.90
2018-06-11T00:40:08.207Z,80.90
2018-06-11T00:41:12.355Z,80.70
2018-06-11T00:42:16.499Z,80.60
2018-06-11T00:43:21.485Z,80.70
2018-06-11T00:44:25.945Z,80.80
2018-06-11T00:45:30.307Z,80.80
2018-06-11T00:46:34.684Z,80.70
2018-06-11T00:47:39.358Z,80.80
2018-06-11T00:48:43.793Z,80.90
2018-06-11T00:49:48.684Z,80.70
2018-06-11T00:50:53.087Z,80.60
2018-06-11T00:51:57.533Z,80.50
2018-06-11T00:53:01.970Z,80.50
2018-06-11T00:54:06.774Z,80.70
2018-06-11T00:55:11.398Z,80.70
2018-06-11T00:56:15.571Z,80.80
2018-06-11T00:57:19.692Z,80.60
2018-06-11T00:58:24.018Z,80.60
2018-06-11T00:59:28.185Z,80.50
2018-06-11T01:00:32.419Z,80.60
2018-06-11T01:01:37.253Z,80.60
2018-06-11T01:02:41.848Z,80.70
2018-06-11T01:03:46.266Z,80.50
2018-06-11T01:04:51.104Z,80.60
2018-06-11T01:05:55.742Z,80.70
2018-06-11T01:07:00.137Z,80.60
2018-06-11T01:08:07.324Z,80.80
2018-06-11T01:09:11.814Z,81.00
2018-06-11T01:10:16.212Z,81.00
2018-06-11T01:11:20.620Z,81.00
2018-06-11T01:12:25.070Z,80.70
2018-06-11T01:13:30.333Z,80.00
2018-06-11T01:14:35.115Z,80.70
2018-06-11T01:15:39.655Z,80.60
2018-06-11T01:16:44.021Z,80.50
2018-06-11T01:17:48.496Z,81.00
2018-06-11T01:18:52.918Z,80.70
2018-06-11T01:19:57.722Z,80.70
2018-06-11T01:21:02.263Z,80.50
2018-06-11T01:22:06.396Z,80.70
2018-06-11T01:23:10.578Z,81.40
2018-06-11T01:24:14.750Z,80.90
2018-06-11T01:25:18.932Z,80.70
2018-06-11T01:26:23.706Z,80.80
2018-06-11T01:27:27.936Z,81.00
2018-06-11T01:28:32.106Z,79.90
2018-06-11T01:29:36.186Z,81.00
2018-06-11T01:30:40.526Z,80.70
2018-06-11T01:31:45.036Z,80.80
2018-06-11T01:32:49.220Z,80.80
2018-06-11T01:33:53.701Z,80.70
2018-06-11T01:34:58.419Z,80.80
2018-06-11T01:36:03.613Z,80.60
2018-06-11T01:38:12.328Z,80.70
2018-06-11T01:39:16.877Z,80.80
2018-06-11T01:40:21.232Z,80.70
2018-06-11T01:41:25.701Z,81.50
2018-06-11T01:42:30.065Z,80.70
2018-06-11T01:43:34.871Z,80.80
2018-06-11T01:44:39.742Z,80.70
2018-06-11T01:45:44.167Z,80.50
2018-06-11T01:46:48.511Z,80.60
2018-06-11T01:48:55.895Z,80.80
2018-06-11T01:50:00.292Z,80.70
2018-06-11T01:51:04.493Z,80.80
2018-06-11T01:52:08.851Z,81.00
2018-06-11T01:53:13.092Z,80.90
2018-06-11T01:54:17.394Z,81.00
2018-06-11T01:55:21.516Z,81.00
2018-06-11T01:56:25.744Z,81.00
2018-06-11T01:57:29.875Z,81.00
2018-06-11T01:58:34.272Z,81.70
2018-06-11T01:59:38.769Z,81.00
2018-06-11T02:00:43.127Z,81.20
2018-06-11T02:01:47.769Z,81.20
2018-06-11T02:02:52.119Z,81.20
2018-06-11T02:03:56.827Z,81.30
2018-06-11T02:05:01.011Z,81.30
2018-06-11T02:06:05.111Z,81.50
2018-06-11T02:07:09.315Z,81.40
2018-06-11T02:08:13.594Z,81.50
2018-06-11T02:09:18.472Z,81.50
2018-06-11T02:10:22.644Z,81.50
2018-06-11T02:11:26.888Z,81.50
2018-06-11T02:13:34.895Z,81.60
2018-06-11T02:16:35.661Z,81.60
2018-06-11T02:17:39.814Z,81.60
2018-06-11T02:18:43.928Z,81.70
2018-06-11T02:19:48.003Z,81.80
2018-06-11T02:20:52.315Z,81.80
2018-06-11T02:21:56.663Z,80.40
2018-06-11T02:23:01.001Z,81.90
2018-06-11T02:24:05.204Z,81.90
2018-06-11T02:25:09.512Z,81.90
2018-06-11T02:26:13.675Z,81.90
2018-06-11T02:28:21.675Z,80.70
2018-06-11T02:29:26.025Z,82.00
2018-06-11T02:30:30.602Z,82.10
2018-06-11T02:31:35.203Z,82.10
2018-06-11T02:32:40.020Z,82.20
2018-06-11T02:33:44.499Z,82.50
2018-06-11T02:34:48.850Z,82.20
2018-06-11T02:35:53.262Z,82.20
2018-06-11T02:38:01.228Z,82.40
2018-06-11T02:39:08.370Z,82.20
2018-06-11T02:40:12.523Z,82.20
2018-06-11T02:41:16.847Z,82.20
2018-06-11T02:43:25.040Z,82.20
2018-06-11T02:44:29.406Z,82.30
2018-06-11T02:45:34.174Z,82.30
2018-06-11T02:46:38.517Z,82.30
2018-06-11T02:47:42.867Z,82.40
2018-06-11T02:48:47.142Z,82.60
2018-06-11T02:49:51.270Z,82.60
2018-06-11T02:50:55.773Z,82.60
2018-06-11T02:52:00.127Z,82.50
2018-06-11T02:53:04.213Z,82.50
2018-06-11T02:55:12.339Z,81.70
2018-06-11T02:56:16.695Z,82.60
2018-06-11T02:57:21.564Z,82.60
2018-06-11T02:58:26.072Z,82.50
2018-06-11T02:59:30.594Z,82.60
2018-06-11T03:00:35.099Z,82.70
2018-06-11T03:01:39.592Z,82.80
2018-06-11T03:02:43.719Z,82.80
2018-06-11T03:03:48.441Z,82.80
2018-06-11T03:04:52.572Z,82.80
2018-06-11T03:05:56.740Z,82.70
2018-06-11T03:07:01.044Z,82.80
2018-06-11T03:08:05.557Z,82.80
2018-06-11T03:09:10.216Z,83.00
2018-06-11T03:10:14.583Z,83.00
2018-06-11T03:11:18.753Z,83.00
2018-06-11T03:12:23.452Z,83.00
2018-06-11T03:13:28.163Z,83.10
2018-06-11T03:14:32.572Z,82.80
2018-06-11T03:15:37.477Z,82.90
2018-06-11T03:16:41.989Z,83.40
2018-06-11T03:17:46.447Z,83.40
2018-06-11T03:18:51.088Z,83.30
2018-06-11T03:19:55.450Z,83.30
2018-06-11T03:21:00.118Z,83.30
2018-06-11T03:22:04.924Z,83.30
2018-06-11T03:23:09.376Z,83.20
2018-06-11T03:24:13.604Z,83.30
2018-06-11T03:25:21.749Z,83.30
2018-06-11T03:26:26.248Z,83.30
2018-06-11T03:27:30.870Z,83.30
2018-06-11T03:28:35.183Z,83.30
2018-06-11T03:29:39.436Z,83.20
2018-06-11T03:30:43.520Z,83.30
2018-06-11T03:31:49.256Z,83.30
2018-06-11T03:32:53.626Z,83.30
2018-06-11T03:33:58.614Z,83.40
2018-06-11T03:35:03.426Z,83.20
2018-06-11T03:36:07.975Z,83.30
2018-06-11T03:37:12.316Z,83.30
2018-06-11T03:38:17.641Z,83.40
2018-06-11T03:39:22.032Z,83.40
2018-06-11T03:40:26.464Z,83.30
2018-06-11T03:41:31.085Z,83.40
2018-06-11T03:42:35.471Z,83.50
2018-06-11T03:43:40.009Z,83.50
2018-06-11T03:44:44.518Z,83.40
2018-06-11T03:45:48.902Z,83.40
2018-06-11T03:46:53.284Z,83.50
2018-06-11T03:47:57.858Z,83.40
2018-06-11T03:49:02.315Z,83.40
2018-06-11T03:50:06.581Z,83.40
2018-06-11T03:51:10.942Z,83.50
2018-06-11T03:52:15.025Z,84.20
2018-06-11T03:53:19.151Z,83.40
2018-06-11T03:54:23.260Z,83.50
2018-06-11T03:55:27.685Z,83.50
2018-06-11T03:56:32.276Z,83.40
2018-06-11T03:57:36.640Z,83.30
2018-06-11T03:58:41.015Z,83.40
2018-06-11T03:59:45.344Z,83.40
2018-06-11T04:01:53.712Z,83.50
2018-06-11T04:02:58.132Z,83.50
2018-06-11T04:04:02.655Z,83.50
2018-06-11T04:05:06.841Z,83.50
2018-06-11T04:07:14.716Z,83.60
2018-06-11T04:08:19.144Z,83.90
2018-06-11T04:09:23.481Z,83.80
2018-06-11T04:10:28.238Z,83.80
2018-06-11T04:11:32.626Z,83.90
2018-06-11T04:12:36.898Z,83.90
2018-06-11T04:13:41.245Z,84.00
2018-06-11T04:14:49.932Z,83.80
2018-06-11T04:15:54.792Z,83.90
2018-06-11T04:16:58.968Z,83.80
2018-06-11T04:18:03.199Z,83.80
2018-06-11T04:19:07.599Z,83.80
2018-06-11T04:20:12.871Z,83.70
2018-06-11T04:21:17.079Z,83.70
2018-06-11T04:22:21.317Z,83.70
2018-06-11T04:23:25.484Z,83.90
2018-06-11T04:24:29.641Z,84.10
2018-06-11T04:25:33.852Z,83.80
2018-06-11T04:26:37.956Z,84.00
2018-06-11T04:27:42.276Z,83.90
2018-06-11T04:28:46.615Z,83.90
2018-06-11T04:29:51.127Z,84.10
2018-06-11T04:30:55.589Z,84.00
2018-06-11T04:32:00.044Z,84.00
2018-06-11T04:33:04.726Z,84.20
2018-06-11T04:35:12.973Z,84.10
2018-06-11T04:36:17.346Z,84.10
2018-06-11T04:37:21.790Z,84.10
2018-06-11T04:38:26.300Z,84.20
2018-06-11T04:39:30.680Z,84.20
2018-06-11T04:40:35.171Z,83.90
2018-06-11T04:41:39.563Z,84.00
2018-06-11T04:42:43.980Z,84.20
2018-06-11T04:43:48.371Z,84.20
2018-06-11T04:44:53.039Z,84.20
2018-06-11T04:45:57.405Z,84.00
2018-06-11T04:47:01.990Z,84.20
2018-06-11T04:48:06.451Z,84.70
2018-06-11T04:50:14.699Z,84.40
2018-06-11T04:51:19.066Z,84.30
2018-06-11T04:52:23.474Z,84.40
2018-06-11T04:53:27.866Z,84.20
2018-06-11T04:54:32.384Z,84.30
2018-06-11T04:55:36.824Z,84.20
2018-06-11T04:57:45.133Z,84.50
2018-06-11T04:58:49.294Z,84.60
2018-06-11T04:59:53.503Z,84.60
2018-06-11T05:00:57.680Z,84.20
2018-06-11T05:02:01.913Z,84.20
2018-06-11T05:03:06.113Z,84.20
2018-06-11T05:04:10.327Z,84.40
2018-06-11T05:05:14.501Z,84.70
2018-06-11T05:06:18.641Z,84.70
2018-06-11T05:07:22.766Z,84.60
2018-06-11T05:08:26.972Z,84.50
2018-06-11T05:09:31.174Z,84.20
2018-06-11T05:10:35.335Z,84.30
2018-06-11T05:11:39.525Z,84.30
2018-06-11T05:12:43.897Z,84.40
2018-06-11T05:13:48.095Z,84.50
2018-06-11T05:14:52.314Z,84.50
2018-06-11T05:15:56.532Z,84.50
2018-06-11T05:17:02.331Z,84.40
2018-06-11T05:18:06.710Z,84.40
2018-06-11T05:19:10.975Z,84.30
2018-06-11T05:20:15.229Z,84.40
2018-06-11T05:21:19.554Z,84.40
2018-06-11T05:22:23.816Z,84.80
2018-06-11T05:23:28.245Z,84.70
2018-06-11T05:24:32.663Z,84.80
2018-06-11T05:25:38.905Z,84.40
2018-06-11T05:26:43.380Z,84.20
2018-06-11T05:27:47.838Z,84.20
2018-06-11T05:28:52.597Z,84.10
2018-06-11T05:29:57.110Z,84.10
2018-06-11T05:31:01.937Z,84.00
2018-06-11T05:32:06.482Z,84.20
2018-06-11T05:33:11.066Z,84.30
2018-06-11T05:34:15.537Z,84.00
2018-06-11T05:35:20.382Z,84.10
2018-06-11T05:36:24.691Z,84.00
2018-06-11T05:37:29.647Z,83.90
2018-06-11T05:38:34.164Z,83.30
2018-06-11T05:39:38.540Z,83.70
2018-06-11T05:40:50.117Z,83.80
2018-06-11T05:41:54.587Z,83.90
2018-06-11T05:42:59.140Z,82.50
2018-06-11T05:44:03.633Z,83.80
2018-06-11T05:45:08.078Z,83.40
2018-06-11T05:46:13.107Z,83.80
2018-06-11T05:47:17.400Z,83.50
2018-06-11T05:48:21.875Z,83.50
2018-06-11T05:49:26.155Z,83.70
2018-06-11T05:50:30.428Z,83.70
2018-06-11T05:51:35.074Z,83.60
2018-06-11T05:52:39.449Z,83.80
2018-06-11T05:53:43.662Z,83.70
2018-06-11T05:54:47.862Z,83.10
2018-06-11T05:55:52.387Z,83.70
2018-06-11T05:56:57.299Z,83.90
2018-06-11T05:58:02.628Z,83.50
2018-06-11T05:59:07.063Z,84.10
2018-06-11T06:00:11.635Z,84.20
2018-06-11T06:01:16.124Z,84.10
2018-06-11T06:02:20.837Z,84.00
2018-06-11T06:03:25.787Z,83.80
2018-06-11T06:04:30.272Z,83.60
2018-06-11T06:05:34.719Z,83.70
2018-06-11T06:06:39.217Z,83.70
2018-06-11T06:07:43.595Z,83.90
2018-06-11T06:08:48.084Z,83.50
2018-06-11T06:09:52.913Z,83.80
2018-06-11T06:10:57.401Z,83.80
2018-06-11T06:13:05.900Z,83.70
2018-06-11T06:15:20.548Z,83.60
2018-06-11T06:16:28.014Z,83.90
2018-06-11T06:17:32.886Z,83.80
2018-06-11T06:18:37.036Z,84.00
2018-06-11T06:19:41.280Z,84.00
2018-06-11T06:20:45.686Z,83.90
2018-06-11T06:23:33.583Z,83.60
2018-06-11T06:24:37.929Z,84.20
2018-06-11T06:25:42.178Z,84.10
2018-06-11T06:26:46.426Z,84.10
2018-06-11T06:27:50.734Z,84.30
2018-06-11T06:28:55.037Z,84.50
2018-06-11T06:29:59.340Z,84.40
2018-06-11T06:31:03.515Z,84.40
2018-06-11T06:32:07.907Z,84.30
2018-06-11T06:33:12.026Z,84.20
2018-06-11T06:34:17.015Z,83.80
2018-06-11T06:35:21.176Z,83.80
2018-06-11T06:36:25.931Z,83.50
2018-06-11T06:37:30.556Z,83.50
2018-06-11T06:38:34.995Z,83.60
2018-06-11T06:39:39.510Z,83.40
2018-06-11T06:40:44.386Z,83.70
2018-06-11T06:41:49.110Z,84.10
2018-06-11T06:42:53.657Z,83.60
2018-06-11T06:43:59.331Z,83.20
2018-06-11T06:45:04.061Z,83.30
2018-06-11T06:46:09.331Z,83.50
2018-06-11T06:47:14.078Z,83.10
2018-06-11T06:49:22.844Z,83.70
2018-06-11T06:50:28.256Z,83.10
2018-06-11T06:51:34.208Z,83.40
2018-06-11T06:52:41.052Z,83.20
2018-06-11T06:53:45.575Z,83.00
2018-06-11T06:54:50.015Z,83.10
2018-06-11T06:55:54.321Z,82.70
2018-06-11T06:56:58.612Z,82.60
2018-06-11T06:58:02.976Z,83.00
2018-06-11T06:59:07.188Z,83.10
2018-06-11T07:00:11.441Z,83.30
2018-06-11T07:01:15.655Z,83.20
2018-06-11T07:02:19.947Z,82.60
2018-06-11T07:03:24.180Z,83.10
2018-06-11T07:04:28.778Z,82.90
2018-06-11T07:05:33.350Z,82.90
2018-06-11T07:06:37.599Z,82.90
2018-06-11T07:07:41.915Z,82.70
2018-06-11T07:08:46.274Z,82.70
2018-06-11T07:09:50.528Z,82.70
2018-06-11T07:10:55.110Z,82.70
2018-06-11T07:11:59.475Z,82.60
2018-06-11T07:13:03.721Z,82.20
2018-06-11T07:14:08.277Z,82.20
2018-06-11T07:15:12.726Z,82.40
2018-06-11T07:16:17.452Z,82.40
2018-06-11T07:17:22.541Z,82.80
2018-06-11T07:18:27.039Z,82.70
2018-06-11T07:19:31.595Z,82.80
2018-06-11T07:20:36.016Z,82.90
2018-06-11T07:21:40.598Z,83.20
2018-06-11T07:22:46.403Z,82.80
2018-06-11T07:23:50.903Z,83.00
2018-06-11T07:24:55.718Z,83.10
2018-06-11T07:26:00.349Z,82.90
2018-06-11T07:27:05.243Z,83.20
2018-06-11T07:28:09.706Z,83.20
2018-06-11T07:29:14.507Z,82.80
2018-06-11T07:30:19.255Z,82.90
2018-06-11T07:31:24.211Z,83.30
2018-06-11T07:32:28.887Z,83.90
2018-06-11T07:33:33.299Z,83.70
2018-06-11T07:34:37.635Z,83.60
2018-06-11T07:35:42.004Z,83.70
2018-06-11T07:36:46.361Z,83.60
2018-06-11T07:37:50.659Z,82.90
2018-06-11T07:38:54.897Z,83.00
2018-06-11T07:39:59.201Z,83.30
2018-06-11T07:41:03.935Z,82.40
2018-06-11T07:42:08.232Z,82.00
2018-06-11T07:43:12.641Z,82.00
2018-06-11T07:44:17.086Z,81.50
2018-06-11T07:45:21.683Z,82.10
2018-06-11T07:46:25.947Z,81.90
2018-06-11T07:47:30.648Z,82.50
2018-06-11T07:48:35.032Z,82.90
2018-06-11T07:49:39.201Z,82.80
2018-06-11T07:50:43.370Z,82.30
2018-06-11T07:51:48.021Z,82.40
2018-06-11T07:52:52.636Z,82.30
2018-06-11T07:53:57.084Z,82.30
2018-06-11T07:55:01.516Z,81.50
2018-06-11T07:56:06.354Z,81.70
2018-06-11T07:57:10.823Z,82.20
2018-06-11T07:58:15.240Z,82.50
2018-06-11T07:59:21.251Z,82.30
2018-06-11T08:00:25.717Z,81.90
2018-06-11T08:02:34.215Z,82.40
2018-06-11T08:03:38.668Z,81.70
2018-06-11T08:04:43.231Z,82.00
2018-06-11T08:05:47.941Z,82.00
2018-06-11T08:06:52.756Z,81.70
2018-06-11T08:07:57.229Z,81.90
2018-06-11T08:09:01.739Z,82.00
2018-06-11T08:10:06.422Z,82.50
2018-06-11T08:11:10.909Z,82.60
2018-06-11T08:12:15.429Z,82.90
2018-06-11T08:13:20.079Z,82.80
2018-06-11T08:14:24.491Z,82.10
2018-06-11T08:15:28.944Z,81.90
2018-06-11T08:16:33.404Z,82.20
2018-06-11T08:17:38.134Z,82.10
2018-06-11T08:18:42.597Z,81.90
2018-06-11T08:19:47.264Z,81.80
2018-06-11T08:20:52.079Z,81.90
2018-06-11T08:21:56.526Z,81.80
2018-06-11T08:23:01.161Z,81.70
2018-06-11T08:24:06.105Z,81.60
2018-06-11T08:25:10.737Z,81.80
2018-06-11T08:26:15.219Z,82.00
2018-06-11T08:27:19.974Z,81.80
2018-06-11T08:28:24.450Z,81.90
2018-06-11T08:29:29.980Z,81.50
2018-06-11T08:30:34.751Z,81.50
2018-06-11T08:31:39.310Z,81.90
2018-06-11T08:32:44.662Z,81.60
2018-06-11T08:33:49.667Z,81.20
2018-06-11T08:34:54.308Z,80.90
2018-06-11T08:36:00.361Z,80.90
2018-06-11T08:39:12.589Z,81.00
2018-06-11T08:40:17.277Z,81.10
2018-06-11T08:41:21.775Z,81.10
2018-06-11T08:42:26.293Z,81.70
2018-06-11T08:43:31.294Z,81.40
2018-06-11T08:44:35.830Z,80.90
2018-06-11T08:45:40.342Z,80.90
2018-06-11T08:46:44.767Z,80.90
2018-06-11T08:47:49.365Z,80.70
2018-06-11T08:48:53.819Z,80.00
2018-06-11T08:49:58.312Z,80.20
2018-06-11T08:51:02.897Z,80.50
2018-06-11T08:52:07.411Z,80.60
2018-06-11T08:53:11.935Z,80.20
2018-06-11T08:54:16.758Z,80.60
2018-06-11T08:55:21.404Z,80.70
2018-06-11T08:56:26.021Z,80.90
2018-06-11T08:57:30.532Z,81.00
2018-06-11T08:58:35.155Z,80.80
2018-06-11T08:59:39.614Z,80.50
2018-06-11T09:00:44.537Z,80.20
2018-06-11T09:02:52.936Z,81.60
2018-06-11T09:03:57.355Z,81.20
2018-06-11T09:05:01.953Z,80.80
2018-06-11T09:06:06.749Z,80.90
2018-06-11T09:07:11.303Z,80.80
2018-06-11T09:08:15.756Z,80.60
2018-06-11T09:09:20.383Z,80.70
2018-06-11T09:10:24.949Z,80.50
2018-06-11T09:11:29.663Z,81.10
2018-06-11T09:12:34.220Z,81.00
2018-06-11T09:13:38.675Z,81.20
2018-06-11T09:14:43.414Z,81.00
2018-06-11T09:15:47.865Z,81.50
2018-06-11T09:16:52.443Z,81.20
2018-06-11T09:17:56.870Z,81.30
2018-06-11T09:19:01.293Z,81.50
2018-06-11T09:20:05.553Z,81.30
2018-06-11T09:21:09.846Z,81.30
2018-06-11T09:22:14.528Z,81.20
2018-06-11T09:23:18.899Z,81.10
2018-06-11T09:24:23.729Z,81.00
2018-06-11T09:25:28.006Z,80.90
2018-06-11T09:26:32.568Z,81.30
2018-06-11T09:27:37.042Z,81.40
2018-06-11T09:28:41.504Z,81.20
2018-06-11T09:29:46.053Z,81.10
2018-06-11T09:30:50.886Z,80.80
2018-06-11T09:31:55.456Z,80.80
2018-06-11T09:33:00.013Z,80.60
2018-06-11T09:34:04.643Z,80.70
2018-06-11T09:35:09.551Z,80.50
2018-06-11T09:36:14.147Z,80.70
2018-06-11T09:37:18.979Z,80.60
2018-06-11T09:38:23.582Z,80.40
2018-06-11T09:39:28.110Z,80.10
2018-06-11T09:40:32.701Z,79.80
2018-06-11T09:41:37.577Z,79.70
2018-06-11T09:42:42.372Z,80.00
2018-06-11T09:43:47.033Z,80.00
2018-06-11T09:44:51.545Z,80.00
2018-06-11T09:45:56.044Z,80.20
2018-06-11T09:47:00.575Z,79.50
2018-06-11T09:48:05.093Z,79.30
2018-06-11T09:49:09.949Z,78.70
2018-06-11T09:50:14.468Z,80.00
2018-06-11T09:52:22.984Z,79.20
2018-06-11T09:53:27.187Z,79.00
2018-06-11T09:54:31.555Z,78.20
2018-06-11T09:55:36.230Z,78.20
2018-06-11T09:56:40.417Z,78.80
2018-06-11T09:57:44.715Z,78.40
2018-06-11T09:58:50.126Z,77.70
2018-06-11T09:59:54.312Z,76.70
2018-06-11T10:00:59.412Z,76.80
2018-06-11T10:03:08.026Z,75.80
2018-06-11T10:04:12.568Z,75.90
2018-06-11T10:05:17.040Z,76.20
2018-06-11T10:06:21.756Z,75.20
2018-06-11T10:07:26.614Z,75.60
2018-06-11T10:08:31.174Z,76.00
2018-06-11T10:09:36.351Z,75.90
2018-06-11T10:10:41.542Z,75.60
2018-06-11T10:11:46.397Z,76.00
2018-06-11T10:12:51.276Z,76.90
2018-06-11T10:15:00.515Z,76.90
2018-06-11T10:17:08.844Z,76.40
2018-06-11T10:18:13.457Z,76.40
2018-06-11T10:19:18.209Z,76.60
2018-06-11T10:20:23.222Z,76.80
2018-06-11T10:21:27.999Z,76.60
2018-06-11T10:22:35.586Z,75.80
2018-06-11T10:23:40.591Z,75.10
2018-06-11T10:24:45.162Z,75.30
2018-06-11T10:25:50.443Z,75.00
2018-06-11T10:26:54.903Z,75.40
2018-06-11T10:27:59.523Z,74.90
2018-06-11T10:29:04.032Z,75.00
2018-06-11T10:30:08.614Z,75.20
2018-06-11T10:31:13.724Z,75.40
2018-06-11T10:32:18.353Z,74.00
2018-06-11T10:33:22.958Z,74.00
2018-06-11T10:34:27.622Z,73.90
2018-06-11T10:35:31.863Z,74.30
2018-06-11T10:36:36.275Z,73.70
2018-06-11T10:37:40.917Z,73.90
2018-06-11T10:38:45.257Z,73.40
2018-06-11T10:39:49.503Z,73.70
2018-06-11T10:40:56.079Z,73.30
2018-06-11T10:42:00.385Z,72.40
2018-06-11T10:43:05.227Z,71.90
2018-06-11T10:44:10.080Z,72.10
2018-06-11T10:45:14.866Z,71.60
2018-06-11T10:46:19.343Z,70.30
2018-06-11T10:47:23.824Z,70.00
2018-06-11T10:48:28.294Z,69.80
2018-06-11T10:49:32.747Z,69.20
2018-06-11T10:50:36.990Z,69.20
2018-06-11T10:51:43.261Z,68.50
2018-06-11T10:52:48.405Z,68.70
2018-06-11T10:53:53.254Z,68.20
2018-06-11T10:54:58.980Z,68.20
2018-06-11T10:56:03.484Z,68.00
2018-06-11T10:57:25.116Z,67.60
2018-06-11T10:58:36.862Z,67.20
2018-06-11T11:02:05.123Z,67.00
2018-06-11T11:03:52.144Z,66.60
2018-06-11T11:06:25.504Z,65.10
2018-06-11T11:07:30.174Z,64.90
2018-06-11T11:08:36.091Z,65.00
2018-06-11T11:09:42.568Z,64.80
2018-06-11T11:10:50.689Z,63.70
2018-06-11T11:11:56.147Z,63.30
2018-06-11T11:13:04.335Z,62.20
2018-06-11T11:14:10.392Z,62.10
2018-06-11T11:15:17.921Z,61.90
2018-06-11T11:16:22.395Z,62.40
2018-06-11T11:17:26.859Z,62.20
2018-06-11T11:18:31.274Z,61.70
2018-06-11T11:19:36.413Z,61.10
2018-06-11T11:20:41.811Z,62.70
2018-06-11T11:21:47.099Z,61.50
2018-06-11T11:22:55.040Z,61.10
2018-06-11T11:24:00.085Z,60.70
2018-06-11T11:26:16.257Z,59.40
2018-06-11T11:27:20.503Z,58.50
2018-06-11T11:28:27.140Z,58.00
2018-06-11T11:30:49.119Z,58.50
2018-06-11T11:32:19.098Z,58.00
2018-06-11T11:33:33.485Z,58.30
2018-06-11T11:34:38.229Z,58.00
2018-06-11T11:36:46.833Z,57.10
2018-06-11T11:37:52.272Z,57.10
2018-06-11T11:38:57.054Z,56.90
2018-06-11T11:40:01.733Z,57.00
2018-06-11T11:41:07.311Z,56.50
2018-06-11T11:42:39.204Z,56.50
2018-06-11T11:43:44.015Z,56.10
2018-06-11T11:44:57.853Z,55.50
2018-06-11T11:46:03.738Z,55.50
2018-06-11T11:47:09.447Z,54.50
2018-06-11T11:49:17.961Z,54.30
2018-06-11T11:50:33.351Z,54.70
2018-06-11T11:51:41.129Z,55.60
2018-06-11T11:52:45.542Z,56.10
2018-06-11T11:53:49.953Z,55.30
2018-06-11T11:54:54.443Z,55.30
2018-06-11T11:55:59.048Z,54.90
2018-06-11T11:57:04.133Z,55.40
2018-06-11T11:58:08.912Z,55.40
2018-06-11T12:00:17.325Z,55.80
2018-06-11T12:01:22.473Z,55.10
2018-06-11T12:02:27.156Z,55.40
2018-06-11T12:03:31.901Z,55.00
2018-06-11T12:04:36.710Z,54.00
2018-06-11T12:06:45.525Z,53.10
2018-06-11T12:08:54.220Z,53.30
2018-06-11T12:09:59.164Z,52.50
2018-06-11T12:11:03.894Z,51.80
2018-06-11T12:12:09.056Z,52.30
2018-06-11T12:13:14.011Z,51.40
2018-06-11T12:14:18.586Z,51.80
2018-06-11T12:15:23.115Z,51.90
2018-06-11T12:16:29.029Z,51.20
2018-06-11T12:17:33.645Z,50.40
2018-06-11T12:18:38.367Z,51.10
2018-06-11T12:19:42.854Z,50.80
2018-06-11T12:20:47.499Z,51.60
2018-06-11T12:21:52.688Z,50.10
2018-06-11T12:22:57.029Z,49.90
2018-06-11T12:24:01.489Z,49.20
2018-06-11T12:25:05.903Z,48.90
2018-06-11T12:26:10.256Z,48.30
2018-06-11T12:27:14.671Z,48.10
2018-06-11T12:28:18.955Z,48.50
2018-06-11T12:29:23.243Z,48.80
2018-06-11T12:30:27.609Z,48.30
2018-06-11T12:31:32.050Z,48.50
2018-06-11T12:32:36.286Z,49.00
2018-06-11T12:34:44.796Z,48.90
2018-06-11T12:35:49.033Z,49.70
2018-06-11T12:36:53.432Z,50.60
2018-06-11T12:37:57.590Z,51.70
2018-06-11T12:39:02.428Z,52.20
2018-06-11T12:40:08.319Z,52.50
2018-06-11T12:41:12.783Z,52.10
2018-06-11T12:42:17.387Z,51.80
2018-06-11T12:43:22.819Z,52.70
2018-06-11T12:44:27.275Z,52.90
2018-06-11T12:45:40.761Z,52.90
2018-06-11T12:46:48.996Z,50.60
2018-06-11T12:47:53.941Z,49.50
2018-06-11T12:48:58.508Z,48.50
2018-06-11T12:50:03.162Z,48.10
2018-06-11T12:51:08.264Z,48.70
2018-06-11T12:53:16.855Z,50.70
2018-06-11T12:54:21.371Z,50.30
2018-06-11T12:55:25.827Z,50.00
2018-06-11T12:56:30.227Z,52.40
2018-06-11T12:57:34.898Z,53.20
2018-06-11T12:58:39.215Z,52.40
2018-06-11T12:59:43.586Z,53.10
2018-06-11T13:00:48.447Z,53.10
2018-06-11T13:01:52.761Z,53.00
2018-06-11T13:03:03.095Z,53.70
2018-06-11T13:04:07.633Z,54.20
2018-06-11T13:05:12.253Z,53.40
2018-06-11T13:06:17.702Z,53.40
2018-06-11T13:07:21.979Z,50.00
2018-06-11T13:09:30.948Z,49.50
2018-06-11T13:10:35.729Z,51.40
2018-06-11T13:11:40.619Z,52.80
2018-06-11T13:12:46.486Z,51.80
2018-06-11T13:13:50.983Z,50.00
2018-06-11T13:14:55.216Z,48.60
2018-06-11T13:17:05.963Z,49.20
2018-06-11T13:19:14.830Z,50.30
2018-06-11T13:20:20.868Z,50.80
2018-06-11T13:21:26.206Z,49.50
2018-06-11T13:22:31.945Z,47.20
2018-06-11T13:23:36.939Z,47.40
2018-06-11T13:25:47.156Z,47.70
2018-06-11T13:26:52.208Z,47.10
2018-06-11T13:27:57.041Z,47.60
2018-06-11T13:30:07.478Z,48.50
2018-06-11T13:31:12.165Z,49.40
2018-06-11T13:32:18.697Z,50.00
2018-06-11T13:33:24.955Z,49.70
2018-06-11T13:34:29.536Z,50.10
2018-06-11T13:35:34.671Z,50.50
2018-06-11T13:36:39.667Z,50.40
2018-06-11T13:37:44.380Z,50.90
2018-06-11T13:38:48.928Z,50.60
2018-06-11T13:40:58.813Z,50.40
2018-06-11T13:42:05.839Z,50.20
2018-06-11T13:43:10.766Z,50.40
2018-06-11T13:46:23.096Z,52.30
2018-06-11T13:47:27.580Z,52.60
2018-06-11T13:48:32.016Z,53.20
2018-06-11T13:49:36.505Z,53.20
2018-06-11T13:50:45.694Z,53.50
2018-06-11T13:51:50.431Z,53.20
2018-06-11T13:52:54.977Z,53.30
2018-06-11T13:54:08.636Z,53.30
2018-06-11T13:55:15.779Z,52.70
2018-06-11T13:56:22.718Z,53.50
2018-06-11T13:58:42.884Z,53.20
2018-06-11T13:59:49.786Z,53.20
2018-06-11T14:00:54.233Z,52.80
2018-06-11T14:02:03.137Z,53.00
2018-06-11T14:03:16.832Z,54.00
2018-06-11T14:04:23.812Z,52.70
2018-06-11T14:06:51.260Z,52.10
2018-06-11T14:07:58.906Z,52.10
2018-06-11T14:09:04.591Z,52.30
2018-06-11T14:10:10.618Z,52.10
2018-06-11T14:11:15.884Z,52.10
2018-06-11T14:12:24.285Z,52.40
2018-06-11T14:15:39.210Z,52.20
2018-06-11T14:16:46.977Z,52.30
2018-06-11T14:17:51.998Z,52.20
2018-06-11T14:18:56.894Z,53.40
2018-06-11T14:21:07.436Z,53.40
2018-06-11T14:22:12.304Z,53.60
2018-06-11T14:23:16.792Z,53.60
2018-06-11T14:24:21.635Z,53.80
2018-06-11T14:25:26.267Z,53.00
2018-06-11T14:26:30.504Z,51.90
2018-06-11T14:27:35.756Z,52.10
2018-06-11T14:29:47.505Z,52.20
2018-06-11T14:30:51.783Z,52.10
2018-06-11T14:31:59.250Z,52.30
2018-06-11T14:33:03.769Z,52.40
2018-06-11T14:34:09.161Z,52.90
2018-06-11T14:35:14.747Z,53.00
2018-06-11T14:36:19.209Z,53.40
2018-06-11T14:37:23.883Z,53.30
2018-06-11T14:38:34.604Z,53.50
2018-06-11T14:39:46.811Z,54.30
2018-06-11T14:40:51.603Z,54.70
2018-06-11T14:41:56.749Z,53.90
2018-06-11T14:43:01.232Z,54.30
2018-06-11T14:44:06.218Z,54.60
2018-06-11T14:45:11.414Z,54.40
2018-06-11T14:46:15.739Z,54.20
2018-06-11T14:47:20.632Z,55.30
2018-06-11T14:48:26.017Z,55.70
2018-06-11T14:49:30.580Z,56.10
2018-06-11T14:50:41.269Z,56.40
2018-06-11T14:51:52.205Z,56.80
2018-06-11T14:53:02.334Z,56.80
2018-06-11T14:54:13.083Z,57.10
2018-06-11T14:55:22.659Z,57.30
2018-06-11T14:56:27.187Z,57.00
2018-06-11T14:57:32.404Z,57.30